sensor_id;sensor_type;location;lat;lon;timestamp;P1;durP1;ratioP1;P2;durP2;ratioP2
22969;SDS011;11651;52.136;5.572;2022-07-21T00:00:55;11.82;;;10.73;;
22969;SDS011;11651;52.136;5.572;2022-07-21T00:03:21;12.13;;;10.70;;
22969;SDS011;11651;52.136;5.572;2022-07-21T00:05:47;11.40;;;10.30;;
22969;SDS011;11651;52.136;5.572;2022-07-21T00:08:12;11.68;;;10.52;;
22969;SDS011;11651;52.136;5.572;2022-07-21T00:10:38;11.77;;;10.60;;
22969;SDS011;11651;52.136;5.572;2022-07-21T00:13:04;13.13;;;11.07;;
22969;SDS011;11651;52.136;5.572;2022-07-21T00:15:30;11.35;;;10.30;;
22969;SDS011;11651;52.136;5.572;2022-07-21T00:17:56;11.02;;;9.93;;
22969;SDS011;11651;52.136;5.572;2022-07-21T00:20:23;12.18;;;10.20;;
22969;SDS011;11651;52.136;5.572;2022-07-21T00:22:49;10.93;;;9.80;;
22969;SDS011;11651;52.136;5.572;2022-07-21T00:25:14;11.20;;;9.85;;
22969;SDS011;11651;52.136;5.572;2022-07-21T00:27:40;10.55;;;9.65;;
22969;SDS011;11651;52.136;5.572;2022-07-21T00:30:07;10.18;;;9.18;;
22969;SDS011;11651;52.136;5.572;2022-07-21T00:32:34;11.93;;;10.15;;
22969;SDS011;11651;52.136;5.572;2022-07-21T00:35:00;9.85;;;8.85;;
22969;SDS011;11651;52.136;5.572;2022-07-21T00:37:26;10.18;;;9.23;;
22969;SDS011;11651;52.136;5.572;2022-07-21T00:39:52;10.38;;;9.38;;
22969;SDS011;11651;52.136;5.572;2022-07-21T00:42:19;9.43;;;8.63;;
22969;SDS011;11651;52.136;5.572;2022-07-21T00:44:49;9.82;;;8.93;;
22969;SDS011;11651;52.136;5.572;2022-07-21T00:47:15;9.85;;;8.85;;
22969;SDS011;11651;52.136;5.572;2022-07-21T00:49:43;8.90;;;8.10;;
22969;SDS011;11651;52.136;5.572;2022-07-21T00:52:09;8.75;;;8.00;;
22969;SDS011;11651;52.136;5.572;2022-07-21T00:54:35;8.82;;;8.00;;
22969;SDS011;11651;52.136;5.572;2022-07-21T00:57:01;8.48;;;7.70;;
22969;SDS011;11651;52.136;5.572;2022-07-21T00:59:27;9.10;;;8.30;;
22969;SDS011;11651;52.136;5.572;2022-07-21T01:01:57;9.07;;;8.23;;
22969;SDS011;11651;52.136;5.572;2022-07-21T01:04:22;8.85;;;7.82;;
22969;SDS011;11651;52.136;5.572;2022-07-21T01:06:48;8.13;;;7.43;;
22969;SDS011;11651;52.136;5.572;2022-07-21T01:09:14;8.63;;;7.85;;
22969;SDS011;11651;52.136;5.572;2022-07-21T01:11:39;9.02;;;7.93;;
22969;SDS011;11651;52.136;5.572;2022-07-21T01:14:06;10.02;;;7.90;;
22969;SDS011;11651;52.136;5.572;2022-07-21T01:16:32;7.85;;;7.15;;
22969;SDS011;11651;52.136;5.572;2022-07-21T01:18:57;9.63;;;8.45;;
22969;SDS011;11651;52.136;5.572;2022-07-21T01:23:52;8.57;;;7.88;;
22969;SDS011;11651;52.136;5.572;2022-07-21T01:26:17;8.88;;;8.07;;
22969;SDS011;11651;52.136;5.572;2022-07-21T01:28:43;8.10;;;7.30;;
22969;SDS011;11651;52.136;5.572;2022-07-21T01:31:09;8.48;;;7.63;;
22969;SDS011;11651;52.136;5.572;2022-07-21T01:33:34;8.48;;;7.68;;
22969;SDS011;11651;52.136;5.572;2022-07-21T01:36:00;8.35;;;7.55;;
22969;SDS011;11651;52.136;5.572;2022-07-21T01:38:25;7.53;;;6.93;;
22969;SDS011;11651;52.136;5.572;2022-07-21T01:41:10;8.82;;;7.50;;
22969;SDS011;11651;52.136;5.572;2022-07-21T01:43:53;8.68;;;7.88;;
22969;SDS011;11651;52.136;5.572;2022-07-21T01:46:19;10.10;;;8.40;;
22969;SDS011;11651;52.136;5.572;2022-07-21T01:48:45;9.27;;;8.40;;
22969;SDS011;11651;52.136;5.572;2022-07-21T01:51:11;11.88;;;8.60;;
22969;SDS011;11651;52.136;5.572;2022-07-21T01:53:37;8.63;;;7.93;;
22969;SDS011;11651;52.136;5.572;2022-07-21T01:56:03;9.57;;;8.68;;
22969;SDS011;11651;52.136;5.572;2022-07-21T01:58:29;8.15;;;7.38;;
22969;SDS011;11651;52.136;5.572;2022-07-21T02:00:56;8.65;;;7.90;;
22969;SDS011;11651;52.136;5.572;2022-07-21T02:03:21;8.70;;;7.90;;
22969;SDS011;11651;52.136;5.572;2022-07-21T02:05:47;8.68;;;7.75;;
22969;SDS011;11651;52.136;5.572;2022-07-21T02:08:12;8.75;;;7.95;;
22969;SDS011;11651;52.136;5.572;2022-07-21T02:10:38;9.85;;;8.80;;
22969;SDS011;11651;52.136;5.572;2022-07-21T02:13:04;9.80;;;8.90;;
22969;SDS011;11651;52.136;5.572;2022-07-21T02:15:30;9.95;;;8.95;;
22969;SDS011;11651;52.136;5.572;2022-07-21T02:17:56;9.98;;;9.07;;
22969;SDS011;11651;52.136;5.572;2022-07-21T02:20:23;12.35;;;8.95;;
22969;SDS011;11651;52.136;5.572;2022-07-21T02:22:49;10.60;;;9.50;;
22969;SDS011;11651;52.136;5.572;2022-07-21T02:25:15;10.82;;;9.82;;
22969;SDS011;11651;52.136;5.572;2022-07-21T02:27:41;10.43;;;9.43;;
22969;SDS011;11651;52.136;5.572;2022-07-21T02:30:07;9.95;;;8.95;;
22969;SDS011;11651;52.136;5.572;2022-07-21T02:32:33;12.05;;;10.60;;
22969;SDS011;11651;52.136;5.572;2022-07-21T02:34:59;11.32;;;10.32;;
22969;SDS011;11651;52.136;5.572;2022-07-21T02:37:24;10.25;;;9.23;;
22969;SDS011;11651;52.136;5.572;2022-07-21T02:39:50;11.25;;;10.18;;
22969;SDS011;11651;52.136;5.572;2022-07-21T02:42:15;12.70;;;11.48;;
22969;SDS011;11651;52.136;5.572;2022-07-21T02:44:41;12.85;;;11.13;;
22969;SDS011;11651;52.136;5.572;2022-07-21T02:47:06;12.32;;;11.02;;
22969;SDS011;11651;52.136;5.572;2022-07-21T02:49:32;13.05;;;11.45;;
22969;SDS011;11651;52.136;5.572;2022-07-21T02:51:57;13.18;;;11.85;;
22969;SDS011;11651;52.136;5.572;2022-07-21T02:54:23;12.57;;;11.40;;
22969;SDS011;11651;52.136;5.572;2022-07-21T02:56:48;13.95;;;12.68;;
22969;SDS011;11651;52.136;5.572;2022-07-21T02:59:14;11.95;;;10.85;;
22969;SDS011;11651;52.136;5.572;2022-07-21T03:01:39;14.15;;;12.73;;
22969;SDS011;11651;52.136;5.572;2022-07-21T03:04:05;12.98;;;11.70;;
22969;SDS011;11651;52.136;5.572;2022-07-21T03:06:31;15.57;;;14.07;;
22969;SDS011;11651;52.136;5.572;2022-07-21T03:08:57;14.20;;;12.75;;
22969;SDS011;11651;52.136;5.572;2022-07-21T03:11:22;14.07;;;12.77;;
22969;SDS011;11651;52.136;5.572;2022-07-21T03:13:48;14.52;;;13.15;;
22969;SDS011;11651;52.136;5.572;2022-07-21T03:16:13;15.02;;;13.55;;
22969;SDS011;11651;52.136;5.572;2022-07-21T03:18:39;15.13;;;13.65;;
22969;SDS011;11651;52.136;5.572;2022-07-21T03:21:06;14.90;;;13.32;;
22969;SDS011;11651;52.136;5.572;2022-07-21T03:23:32;14.88;;;13.25;;
22969;SDS011;11651;52.136;5.572;2022-07-21T03:25:57;15.27;;;13.77;;
22969;SDS011;11651;52.136;5.572;2022-07-21T03:28:23;14.43;;;13.02;;
22969;SDS011;11651;52.136;5.572;2022-07-21T03:30:48;15.50;;;14.00;;
22969;SDS011;11651;52.136;5.572;2022-07-21T03:33:14;16.23;;;14.60;;
22969;SDS011;11651;52.136;5.572;2022-07-21T03:35:39;15.23;;;13.73;;
22969;SDS011;11651;52.136;5.572;2022-07-21T03:38:05;18.63;;;16.83;;
22969;SDS011;11651;52.136;5.572;2022-07-21T03:40:32;17.73;;;16.02;;
22969;SDS011;11651;52.136;5.572;2022-07-21T03:42:59;18.90;;;17.10;;
22969;SDS011;11651;52.136;5.572;2022-07-21T03:45:26;19.85;;;17.70;;
22969;SDS011;11651;52.136;5.572;2022-07-21T03:47:55;22.23;;;17.35;;
22969;SDS011;11651;52.136;5.572;2022-07-21T03:50:21;18.92;;;17.08;;
22969;SDS011;11651;52.136;5.572;2022-07-21T03:52:47;20.75;;;18.58;;
22969;SDS011;11651;52.136;5.572;2022-07-21T03:55:13;19.50;;;17.50;;
22969;SDS011;11651;52.136;5.572;2022-07-21T03:57:43;20.98;;;18.85;;
22969;SDS011;11651;52.136;5.572;2022-07-21T04:00:13;23.50;;;20.63;;
22969;SDS011;11651;52.136;5.572;2022-07-21T04:02:40;21.27;;;19.23;;
22969;SDS011;11651;52.136;5.572;2022-07-21T04:05:08;22.23;;;19.77;;
22969;SDS011;11651;52.136;5.572;2022-07-21T04:07:35;21.05;;;19.02;;
22969;SDS011;11651;52.136;5.572;2022-07-21T04:10:01;22.88;;;20.02;;
22969;SDS011;11651;52.136;5.572;2022-07-21T04:12:28;22.48;;;20.05;;
22969;SDS011;11651;52.136;5.572;2022-07-21T04:14:54;21.95;;;19.83;;
22969;SDS011;11651;52.136;5.572;2022-07-21T04:17:20;22.20;;;19.90;;
22969;SDS011;11651;52.136;5.572;2022-07-21T04:19:46;22.73;;;20.15;;
22969;SDS011;11651;52.136;5.572;2022-07-21T04:22:11;24.23;;;21.60;;
22969;SDS011;11651;52.136;5.572;2022-07-21T04:24:37;28.38;;;23.50;;
22969;SDS011;11651;52.136;5.572;2022-07-21T04:27:02;24.33;;;21.83;;
22969;SDS011;11651;52.136;5.572;2022-07-21T04:29:28;24.45;;;21.40;;
22969;SDS011;11651;52.136;5.572;2022-07-21T04:31:54;24.50;;;20.73;;
22969;SDS011;11651;52.136;5.572;2022-07-21T04:34:19;22.65;;;20.42;;
22969;SDS011;11651;52.136;5.572;2022-07-21T04:36:45;25.73;;;23.02;;
22969;SDS011;11651;52.136;5.572;2022-07-21T04:39:11;23.73;;;21.35;;
22969;SDS011;11651;52.136;5.572;2022-07-21T04:41:36;25.40;;;22.42;;
22969;SDS011;11651;52.136;5.572;2022-07-21T04:44:02;26.05;;;23.27;;
22969;SDS011;11651;52.136;5.572;2022-07-21T04:46:28;26.35;;;23.73;;
22969;SDS011;11651;52.136;5.572;2022-07-21T04:48:53;26.38;;;22.60;;
22969;SDS011;11651;52.136;5.572;2022-07-21T04:51:19;25.80;;;23.13;;
22969;SDS011;11651;52.136;5.572;2022-07-21T04:53:44;25.38;;;22.63;;
22969;SDS011;11651;52.136;5.572;2022-07-21T04:56:10;24.98;;;22.58;;
22969;SDS011;11651;52.136;5.572;2022-07-21T04:58:35;25.90;;;23.15;;
22969;SDS011;11651;52.136;5.572;2022-07-21T05:01:01;28.50;;;25.50;;
22969;SDS011;11651;52.136;5.572;2022-07-21T05:03:26;26.02;;;23.25;;
22969;SDS011;11651;52.136;5.572;2022-07-21T05:05:52;27.60;;;24.50;;
22969;SDS011;11651;52.136;5.572;2022-07-21T05:08:17;28.80;;;25.75;;
22969;SDS011;11651;52.136;5.572;2022-07-21T05:10:43;28.40;;;25.48;;
22969;SDS011;11651;52.136;5.572;2022-07-21T05:13:08;30.60;;;27.27;;
22969;SDS011;11651;52.136;5.572;2022-07-21T05:15:34;31.33;;;27.95;;
22969;SDS011;11651;52.136;5.572;2022-07-21T05:18:00;30.73;;;26.35;;
22969;SDS011;11651;52.136;5.572;2022-07-21T05:20:25;31.05;;;27.92;;
22969;SDS011;11651;52.136;5.572;2022-07-21T05:22:51;32.70;;;29.02;;
22969;SDS011;11651;52.136;5.572;2022-07-21T05:25:16;33.38;;;29.83;;
22969;SDS011;11651;52.136;5.572;2022-07-21T05:27:42;34.85;;;30.88;;
22969;SDS011;11651;52.136;5.572;2022-07-21T05:30:07;35.50;;;31.67;;
22969;SDS011;11651;52.136;5.572;2022-07-21T05:32:34;34.90;;;30.30;;
22969;SDS011;11651;52.136;5.572;2022-07-21T05:34:59;35.03;;;31.23;;
22969;SDS011;11651;52.136;5.572;2022-07-21T05:37:25;34.92;;;31.23;;
22969;SDS011;11651;52.136;5.572;2022-07-21T05:39:52;37.53;;;32.60;;
22969;SDS011;11651;52.136;5.572;2022-07-21T05:42:18;35.28;;;31.27;;
22969;SDS011;11651;52.136;5.572;2022-07-21T05:44:43;34.20;;;30.55;;
22969;SDS011;11651;52.136;5.572;2022-07-21T05:47:09;36.67;;;32.63;;
22969;SDS011;11651;52.136;5.572;2022-07-21T05:49:35;39.22;;;33.33;;
22969;SDS011;11651;52.136;5.572;2022-07-21T05:52:00;35.65;;;30.98;;
22969;SDS011;11651;52.136;5.572;2022-07-21T05:54:27;37.38;;;32.03;;
22969;SDS011;11651;52.136;5.572;2022-07-21T05:56:52;36.65;;;32.38;;
22969;SDS011;11651;52.136;5.572;2022-07-21T05:59:18;38.80;;;33.00;;
22969;SDS011;11651;52.136;5.572;2022-07-21T06:01:43;39.05;;;34.10;;
22969;SDS011;11651;52.136;5.572;2022-07-21T06:04:09;37.75;;;32.17;;
22969;SDS011;11651;52.136;5.572;2022-07-21T06:06:34;37.92;;;30.98;;
22969;SDS011;11651;52.136;5.572;2022-07-21T06:09:00;38.17;;;33.08;;
22969;SDS011;11651;52.136;5.572;2022-07-21T06:11:25;37.03;;;32.80;;
22969;SDS011;11651;52.136;5.572;2022-07-21T06:13:52;36.63;;;32.58;;
22969;SDS011;11651;52.136;5.572;2022-07-21T06:16:18;39.80;;;34.05;;
22969;SDS011;11651;52.136;5.572;2022-07-21T06:18:43;39.20;;;32.88;;
22969;SDS011;11651;52.136;5.572;2022-07-21T06:21:09;39.25;;;32.15;;
22969;SDS011;11651;52.136;5.572;2022-07-21T06:23:34;37.35;;;30.88;;
22969;SDS011;11651;52.136;5.572;2022-07-21T06:26:00;38.40;;;30.98;;
22969;SDS011;11651;52.136;5.572;2022-07-21T06:28:26;32.70;;;28.98;;
22969;SDS011;11651;52.136;5.572;2022-07-21T06:30:51;36.22;;;29.95;;
22969;SDS011;11651;52.136;5.572;2022-07-21T06:33:17;34.25;;;29.48;;
22969;SDS011;11651;52.136;5.572;2022-07-21T06:35:43;35.20;;;28.67;;
22969;SDS011;11651;52.136;5.572;2022-07-21T06:38:09;29.42;;;26.23;;
22969;SDS011;11651;52.136;5.572;2022-07-21T06:40:34;30.50;;;25.83;;
22969;SDS011;11651;52.136;5.572;2022-07-21T06:43:00;29.80;;;25.95;;
22969;SDS011;11651;52.136;5.572;2022-07-21T06:45:26;30.45;;;25.58;;
22969;SDS011;11651;52.136;5.572;2022-07-21T06:47:58;29.42;;;24.40;;
22969;SDS011;11651;52.136;5.572;2022-07-21T06:50:34;31.27;;;24.70;;
22969;SDS011;11651;52.136;5.572;2022-07-21T06:53:00;30.90;;;24.20;;
22969;SDS011;11651;52.136;5.572;2022-07-21T06:55:26;25.98;;;23.02;;
22969;SDS011;11651;52.136;5.572;2022-07-21T06:57:52;26.67;;;23.15;;
22969;SDS011;11651;52.136;5.572;2022-07-21T07:00:18;29.75;;;24.67;;
22969;SDS011;11651;52.136;5.572;2022-07-21T07:02:44;29.95;;;22.80;;
22969;SDS011;11651;52.136;5.572;2022-07-21T07:05:09;25.75;;;22.00;;
22969;SDS011;11651;52.136;5.572;2022-07-21T07:07:35;30.38;;;23.60;;
22969;SDS011;11651;52.136;5.572;2022-07-21T07:10:01;32.30;;;23.88;;
22969;SDS011;11651;52.136;5.572;2022-07-21T07:12:27;26.80;;;22.52;;
22969;SDS011;11651;52.136;5.572;2022-07-21T07:14:53;27.17;;;23.10;;
22969;SDS011;11651;52.136;5.572;2022-07-21T07:17:19;32.88;;;24.77;;
22969;SDS011;11651;52.136;5.572;2022-07-21T07:19:45;31.60;;;22.75;;
22969;SDS011;11651;52.136;5.572;2022-07-21T07:22:11;26.67;;;22.08;;
22969;SDS011;11651;52.136;5.572;2022-07-21T07:24:37;32.20;;;23.85;;
22969;SDS011;11651;52.136;5.572;2022-07-21T07:27:02;28.90;;;24.48;;
22969;SDS011;11651;52.136;5.572;2022-07-21T07:29:28;31.23;;;25.15;;
22969;SDS011;11651;52.136;5.572;2022-07-21T07:31:54;32.28;;;26.48;;
22969;SDS011;11651;52.136;5.572;2022-07-21T07:34:20;30.17;;;23.95;;
22969;SDS011;11651;52.136;5.572;2022-07-21T07:36:46;35.05;;;26.63;;
22969;SDS011;11651;52.136;5.572;2022-07-21T07:39:12;33.25;;;25.20;;
22969;SDS011;11651;52.136;5.572;2022-07-21T07:41:40;31.48;;;25.05;;
22969;SDS011;11651;52.136;5.572;2022-07-21T07:44:06;30.48;;;24.13;;
22969;SDS011;11651;52.136;5.572;2022-07-21T07:46:32;31.08;;;24.88;;
22969;SDS011;11651;52.136;5.572;2022-07-21T07:48:57;35.70;;;25.33;;
22969;SDS011;11651;52.136;5.572;2022-07-21T07:51:24;29.92;;;24.40;;
22969;SDS011;11651;52.136;5.572;2022-07-21T07:53:50;31.63;;;25.17;;
22969;SDS011;11651;52.136;5.572;2022-07-21T07:56:15;33.97;;;26.27;;
22969;SDS011;11651;52.136;5.572;2022-07-21T07:58:41;36.35;;;27.27;;
22969;SDS011;11651;52.136;5.572;2022-07-21T08:01:06;30.65;;;25.27;;
22969;SDS011;11651;52.136;5.572;2022-07-21T08:03:32;29.92;;;25.13;;
22969;SDS011;11651;52.136;5.572;2022-07-21T08:05:58;28.30;;;24.88;;
22969;SDS011;11651;52.136;5.572;2022-07-21T08:08:28;30.65;;;25.73;;
22969;SDS011;11651;52.136;5.572;2022-07-21T08:10:54;33.08;;;26.90;;
22969;SDS011;11651;52.136;5.572;2022-07-21T08:13:20;38.80;;;28.63;;
22969;SDS011;11651;52.136;5.572;2022-07-21T08:15:47;36.15;;;28.45;;
22969;SDS011;11651;52.136;5.572;2022-07-21T08:18:13;33.70;;;27.80;;
22969;SDS011;11651;52.136;5.572;2022-07-21T08:20:40;40.15;;;29.63;;
22969;SDS011;11651;52.136;5.572;2022-07-21T08:23:06;41.22;;;30.38;;
22969;SDS011;11651;52.136;5.572;2022-07-21T08:25:32;39.25;;;28.77;;
22969;SDS011;11651;52.136;5.572;2022-07-21T08:27:58;41.95;;;30.73;;
22969;SDS011;11651;52.136;5.572;2022-07-21T08:30:23;42.85;;;32.50;;
22969;SDS011;11651;52.136;5.572;2022-07-21T08:32:49;46.47;;;34.33;;
22969;SDS011;11651;52.136;5.572;2022-07-21T08:35:14;45.72;;;33.65;;
22969;SDS011;11651;52.136;5.572;2022-07-21T08:37:40;49.70;;;35.92;;
22969;SDS011;11651;52.136;5.572;2022-07-21T08:40:06;50.10;;;35.78;;
22969;SDS011;11651;52.136;5.572;2022-07-21T08:42:34;55.75;;;38.28;;
22969;SDS011;11651;52.136;5.572;2022-07-21T08:45:00;55.25;;;36.72;;
22969;SDS011;11651;52.136;5.572;2022-07-21T08:47:26;57.42;;;38.20;;
22969;SDS011;11651;52.136;5.572;2022-07-21T08:49:53;54.67;;;36.60;;
22969;SDS011;11651;52.136;5.572;2022-07-21T08:52:19;55.05;;;36.17;;
22969;SDS011;11651;52.136;5.572;2022-07-21T08:54:45;51.75;;;36.28;;
22969;SDS011;11651;52.136;5.572;2022-07-21T08:57:11;53.55;;;36.58;;
22969;SDS011;11651;52.136;5.572;2022-07-21T08:59:36;54.45;;;37.60;;
22969;SDS011;11651;52.136;5.572;2022-07-21T09:02:02;57.58;;;39.40;;
22969;SDS011;11651;52.136;5.572;2022-07-21T09:04:30;53.75;;;37.85;;
22969;SDS011;11651;52.136;5.572;2022-07-21T09:07:03;51.78;;;35.65;;
22969;SDS011;11651;52.136;5.572;2022-07-21T09:09:31;49.00;;;34.75;;
22969;SDS011;11651;52.136;5.572;2022-07-21T09:11:58;45.78;;;32.97;;
22969;SDS011;11651;52.136;5.572;2022-07-21T09:14:26;43.92;;;31.25;;
22969;SDS011;11651;52.136;5.572;2022-07-21T09:16:57;40.80;;;29.70;;
22969;SDS011;11651;52.136;5.572;2022-07-21T09:19:28;38.17;;;27.40;;
22969;SDS011;11651;52.136;5.572;2022-07-21T09:22:01;28.98;;;23.73;;
22969;SDS011;11651;52.136;5.572;2022-07-21T09:24:29;36.38;;;25.15;;
22969;SDS011;11651;52.136;5.572;2022-07-21T09:27:09;30.40;;;23.67;;
22969;SDS011;11651;52.136;5.572;2022-07-21T09:29:49;32.67;;;24.15;;
22969;SDS011;11651;52.136;5.572;2022-07-21T09:34:51;31.33;;;24.23;;
22969;SDS011;11651;52.136;5.572;2022-07-21T09:37:19;29.92;;;24.13;;
22969;SDS011;11651;52.136;5.572;2022-07-21T09:39:47;29.23;;;22.30;;
22969;SDS011;11651;52.136;5.572;2022-07-21T09:42:23;29.02;;;22.73;;
22969;SDS011;11651;52.136;5.572;2022-07-21T09:44:55;28.35;;;22.98;;
22969;SDS011;11651;52.136;5.572;2022-07-21T09:47:27;32.20;;;23.90;;
22969;SDS011;11651;52.136;5.572;2022-07-21T09:49:54;26.48;;;22.52;;
22969;SDS011;11651;52.136;5.572;2022-07-21T09:52:21;32.05;;;25.23;;
22969;SDS011;11651;52.136;5.572;2022-07-21T09:54:49;28.70;;;23.80;;
22969;SDS011;11651;52.136;5.572;2022-07-21T09:57:16;35.15;;;26.75;;
22969;SDS011;11651;52.136;5.572;2022-07-21T09:59:54;29.25;;;23.55;;
22969;SDS011;11651;52.136;5.572;2022-07-21T10:02:22;28.92;;;23.40;;
22969;SDS011;11651;52.136;5.572;2022-07-21T10:04:58;29.63;;;23.00;;
22969;SDS011;11651;52.136;5.572;2022-07-21T10:07:32;24.95;;;21.67;;
22969;SDS011;11651;52.136;5.572;2022-07-21T10:10:00;25.75;;;19.48;;
22969;SDS011;11651;52.136;5.572;2022-07-21T10:12:26;22.10;;;18.10;;
22969;SDS011;11651;52.136;5.572;2022-07-21T10:14:52;19.45;;;16.85;;
22969;SDS011;11651;52.136;5.572;2022-07-21T10:17:19;15.90;;;13.35;;
22969;SDS011;11651;52.136;5.572;2022-07-21T10:25:22;12.68;;;11.38;;
22969;SDS011;11651;52.136;5.572;2022-07-21T10:30:41;13.65;;;9.98;;
22969;SDS011;11651;52.136;5.572;2022-07-21T10:33:08;12.68;;;9.00;;
22969;SDS011;11651;52.136;5.572;2022-07-21T10:35:41;10.05;;;7.55;;
22969;SDS011;11651;52.136;5.572;2022-07-21T10:38:24;7.80;;;6.53;;
22969;SDS011;11651;52.136;5.572;2022-07-21T10:40:55;6.60;;;6.00;;
22969;SDS011;11651;52.136;5.572;2022-07-21T10:45:50;6.45;;;4.90;;
22969;SDS011;11651;52.136;5.572;2022-07-21T10:51:08;4.93;;;4.45;;
22969;SDS011;11651;52.136;5.572;2022-07-21T10:53:37;5.35;;;4.65;;
22969;SDS011;11651;52.136;5.572;2022-07-21T10:56:04;5.38;;;4.68;;
22969;SDS011;11651;52.136;5.572;2022-07-21T10:58:33;6.13;;;5.30;;
22969;SDS011;11651;52.136;5.572;2022-07-21T11:01:06;6.75;;;4.63;;
22969;SDS011;11651;52.136;5.572;2022-07-21T11:03:39;6.72;;;5.10;;
22969;SDS011;11651;52.136;5.572;2022-07-21T11:11:17;10.07;;;6.30;;
22969;SDS011;11651;52.136;5.572;2022-07-21T11:19:30;7.20;;;6.50;;
22969;SDS011;11651;52.136;5.572;2022-07-21T11:22:12;8.95;;;7.65;;
22969;SDS011;11651;52.136;5.572;2022-07-21T11:24:39;7.15;;;6.50;;
22969;SDS011;11651;52.136;5.572;2022-07-21T11:27:10;7.13;;;6.53;;
22969;SDS011;11651;52.136;5.572;2022-07-21T11:29:42;7.70;;;6.95;;
22969;SDS011;11651;52.136;5.572;2022-07-21T11:32:09;10.20;;;7.00;;
22969;SDS011;11651;52.136;5.572;2022-07-21T11:34:46;9.98;;;6.78;;
22969;SDS011;11651;52.136;5.572;2022-07-21T11:37:13;7.68;;;6.97;;
22969;SDS011;11651;52.136;5.572;2022-07-21T11:39:44;9.10;;;7.25;;
22969;SDS011;11651;52.136;5.572;2022-07-21T11:42:12;7.93;;;6.72;;
22969;SDS011;11651;52.136;5.572;2022-07-21T11:44:40;8.25;;;7.32;;
22969;SDS011;11651;52.136;5.572;2022-07-21T11:47:07;8.80;;;7.90;;
22969;SDS011;11651;52.136;5.572;2022-07-21T11:49:36;8.30;;;7.13;;
22969;SDS011;11651;52.136;5.572;2022-07-21T11:52:03;7.50;;;6.80;;
22969;SDS011;11651;52.136;5.572;2022-07-21T11:54:34;8.27;;;6.95;;
22969;SDS011;11651;52.136;5.572;2022-07-21T11:57:11;6.25;;;5.75;;
22969;SDS011;11651;52.136;5.572;2022-07-21T11:59:37;6.90;;;6.30;;
22969;SDS011;11651;52.136;5.572;2022-07-21T12:02:07;7.47;;;6.65;;
22969;SDS011;11651;52.136;5.572;2022-07-21T12:04:41;7.57;;;6.68;;
22969;SDS011;11651;52.136;5.572;2022-07-21T12:10:01;6.38;;;5.60;;
22969;SDS011;11651;52.136;5.572;2022-07-21T12:12:38;5.50;;;5.00;;
22969;SDS011;11651;52.136;5.572;2022-07-21T12:15:22;5.70;;;5.20;;
22969;SDS011;11651;52.136;5.572;2022-07-21T12:17:54;6.10;;;4.72;;
22969;SDS011;11651;52.136;5.572;2022-07-21T12:20:37;5.78;;;5.28;;
22969;SDS011;11651;52.136;5.572;2022-07-21T12:25:47;7.05;;;5.25;;
22969;SDS011;11651;52.136;5.572;2022-07-21T12:28:13;6.13;;;5.53;;
22969;SDS011;11651;52.136;5.572;2022-07-21T12:30:43;6.40;;;5.60;;
22969;SDS011;11651;52.136;5.572;2022-07-21T12:33:17;6.25;;;5.68;;
22969;SDS011;11651;52.136;5.572;2022-07-21T12:35:55;7.70;;;5.75;;
22969;SDS011;11651;52.136;5.572;2022-07-21T12:38:34;5.78;;;5.13;;
22969;SDS011;11651;52.136;5.572;2022-07-21T12:41:07;5.45;;;4.85;;
22969;SDS011;11651;52.136;5.572;2022-07-21T12:43:35;8.55;;;5.65;;
22969;SDS011;11651;52.136;5.572;2022-07-21T12:48:35;5.85;;;5.25;;
22969;SDS011;11651;52.136;5.572;2022-07-21T12:51:15;8.18;;;5.45;;
22969;SDS011;11651;52.136;5.572;2022-07-21T12:53:53;6.55;;;5.53;;
22969;SDS011;11651;52.136;5.572;2022-07-21T12:56:21;6.93;;;5.57;;
22969;SDS011;11651;52.136;5.572;2022-07-21T12:58:50;5.40;;;5.00;;
22969;SDS011;11651;52.136;5.572;2022-07-21T13:01:17;7.45;;;5.82;;
22969;SDS011;11651;52.136;5.572;2022-07-21T13:03:45;5.93;;;5.38;;
22969;SDS011;11651;52.136;5.572;2022-07-21T13:06:11;8.65;;;6.25;;
22969;SDS011;11651;52.136;5.572;2022-07-21T13:08:39;7.22;;;6.20;;
22969;SDS011;11651;52.136;5.572;2022-07-21T13:11:06;5.50;;;5.10;;
22969;SDS011;11651;52.136;5.572;2022-07-21T13:13:32;6.07;;;5.53;;
22969;SDS011;11651;52.136;5.572;2022-07-21T13:15:58;6.25;;;5.65;;
22969;SDS011;11651;52.136;5.572;2022-07-21T13:18:24;5.72;;;5.18;;
22969;SDS011;11651;52.136;5.572;2022-07-21T13:20:50;6.72;;;5.75;;
22969;SDS011;11651;52.136;5.572;2022-07-21T13:23:17;6.00;;;5.50;;
22969;SDS011;11651;52.136;5.572;2022-07-21T13:25:44;6.70;;;5.78;;
22969;SDS011;11651;52.136;5.572;2022-07-21T13:28:10;8.75;;;5.72;;
22969;SDS011;11651;52.136;5.572;2022-07-21T13:30:35;9.80;;;5.60;;
22969;SDS011;11651;52.136;5.572;2022-07-21T13:33:01;7.82;;;5.60;;
22969;SDS011;11651;52.136;5.572;2022-07-21T13:35:26;6.20;;;5.60;;
22969;SDS011;11651;52.136;5.572;2022-07-21T13:37:55;8.40;;;5.80;;
22969;SDS011;11651;52.136;5.572;2022-07-21T13:40:22;6.88;;;6.18;;
22969;SDS011;11651;52.136;5.572;2022-07-21T13:42:48;6.60;;;5.68;;
22969;SDS011;11651;52.136;5.572;2022-07-21T13:45:14;8.65;;;5.97;;
22969;SDS011;11651;52.136;5.572;2022-07-21T13:47:41;6.07;;;5.28;;
22969;SDS011;11651;52.136;5.572;2022-07-21T13:50:07;5.32;;;4.82;;
22969;SDS011;11651;52.136;5.572;2022-07-21T13:52:33;5.07;;;4.53;;
22969;SDS011;11651;52.136;5.572;2022-07-21T13:55:00;6.63;;;4.78;;
22969;SDS011;11651;52.136;5.572;2022-07-21T13:57:26;5.93;;;4.43;;
22969;SDS011;11651;52.136;5.572;2022-07-21T13:59:51;4.47;;;4.07;;
22969;SDS011;11651;52.136;5.572;2022-07-21T14:02:17;4.75;;;3.63;;
22969;SDS011;11651;52.136;5.572;2022-07-21T14:04:42;5.80;;;3.60;;
22969;SDS011;11651;52.136;5.572;2022-07-21T14:07:13;5.50;;;4.03;;
22969;SDS011;11651;52.136;5.572;2022-07-21T14:09:46;3.67;;;3.30;;
22969;SDS011;11651;52.136;5.572;2022-07-21T14:12:12;3.00;;;2.80;;
22969;SDS011;11651;52.136;5.572;2022-07-21T14:14:37;3.33;;;3.03;;
22969;SDS011;11651;52.136;5.572;2022-07-21T14:17:03;3.10;;;2.90;;
22969;SDS011;11651;52.136;5.572;2022-07-21T14:19:29;3.95;;;3.05;;
22969;SDS011;11651;52.136;5.572;2022-07-21T14:21:55;3.25;;;2.90;;
22969;SDS011;11651;52.136;5.572;2022-07-21T14:24:20;3.15;;;2.78;;
22969;SDS011;11651;52.136;5.572;2022-07-21T14:27:04;3.00;;;2.70;;
22969;SDS011;11651;52.136;5.572;2022-07-21T14:29:30;4.45;;;2.80;;
22969;SDS011;11651;52.136;5.572;2022-07-21T14:31:56;3.25;;;2.85;;
22969;SDS011;11651;52.136;5.572;2022-07-21T14:34:21;3.58;;;3.00;;
22969;SDS011;11651;52.136;5.572;2022-07-21T14:36:47;3.22;;;2.50;;
22969;SDS011;11651;52.136;5.572;2022-07-21T14:39:13;3.40;;;2.70;;
22969;SDS011;11651;52.136;5.572;2022-07-21T14:41:39;6.85;;;3.38;;
22969;SDS011;11651;52.136;5.572;2022-07-21T14:44:05;3.22;;;2.90;;
22969;SDS011;11651;52.136;5.572;2022-07-21T14:46:31;5.68;;;2.95;;
22969;SDS011;11651;52.136;5.572;2022-07-21T14:48:56;4.03;;;2.90;;
22969;SDS011;11651;52.136;5.572;2022-07-21T14:51:22;3.00;;;2.70;;
22969;SDS011;11651;52.136;5.572;2022-07-21T14:53:48;2.90;;;2.70;;
22969;SDS011;11651;52.136;5.572;2022-07-21T14:56:14;3.10;;;2.80;;
22969;SDS011;11651;52.136;5.572;2022-07-21T14:58:39;4.00;;;3.10;;
22969;SDS011;11651;52.136;5.572;2022-07-21T15:01:05;5.65;;;3.13;;
22969;SDS011;11651;52.136;5.572;2022-07-21T15:03:30;3.60;;;2.80;;
22969;SDS011;11651;52.136;5.572;2022-07-21T15:05:56;3.65;;;2.92;;
22969;SDS011;11651;52.136;5.572;2022-07-21T15:08:21;3.63;;;3.17;;
22969;SDS011;11651;52.136;5.572;2022-07-21T15:10:47;3.22;;;2.80;;